sensor_id;sensor_type;location;lat;lon;timestamp;P1;durP1;ratioP1;P2;durP2;ratioP2
20482;SDS011;10400;53.198;6.592;2024-03-07T00:00:25;21.98;;;14.75;;
20482;SDS011;10400;53.198;6.592;2024-03-07T00:02:51;21.38;;;14.32;;
20482;SDS011;10400;53.198;6.592;2024-03-07T00:05:18;22.52;;;14.73;;
20482;SDS011;10400;53.198;6.592;2024-03-07T00:07:45;23.20;;;14.90;;
20482;SDS011;10400;53.198;6.592;2024-03-07T00:10:11;25.50;;;15.35;;
20482;SDS011;10400;53.198;6.592;2024-03-07T00:12:37;24.27;;;14.80;;
20482;SDS011;10400;53.198;6.592;2024-03-07T00:15:07;25.02;;;14.65;;
20482;SDS011;10400;53.198;6.592;2024-03-07T00:17:34;26.67;;;14.85;;
20482;SDS011;10400;53.198;6.592;2024-03-07T00:20:00;22.35;;;14.30;;
20482;SDS011;10400;53.198;6.592;2024-03-07T00:22:26;22.73;;;14.30;;
20482;SDS011;10400;53.198;6.592;2024-03-07T00:24:54;22.80;;;13.77;;
20482;SDS011;10400;53.198;6.592;2024-03-07T00:27:24;24.10;;;15.10;;
20482;SDS011;10400;53.198;6.592;2024-03-07T00:29:51;22.92;;;14.18;;
20482;SDS011;10400;53.198;6.592;2024-03-07T00:32:22;25.00;;;14.20;;
20482;SDS011;10400;53.198;6.592;2024-03-07T00:34:48;21.23;;;14.50;;
20482;SDS011;10400;53.198;6.592;2024-03-07T00:37:15;21.02;;;13.77;;
20482;SDS011;10400;53.198;6.592;2024-03-07T00:39:41;20.25;;;13.50;;
20482;SDS011;10400;53.198;6.592;2024-03-07T00:42:07;20.55;;;13.85;;
20482;SDS011;10400;53.198;6.592;2024-03-07T00:44:33;21.77;;;14.35;;
20482;SDS011;10400;53.198;6.592;2024-03-07T00:47:02;22.00;;;14.10;;
20482;SDS011;10400;53.198;6.592;2024-03-07T00:49:28;24.13;;;14.48;;
20482;SDS011;10400;53.198;6.592;2024-03-07T00:51:55;20.60;;;13.70;;
20482;SDS011;10400;53.198;6.592;2024-03-07T00:54:21;20.58;;;14.02;;
20482;SDS011;10400;53.198;6.592;2024-03-07T00:56:47;22.23;;;14.27;;
20482;SDS011;10400;53.198;6.592;2024-03-07T00:59:16;20.10;;;13.70;;
20482;SDS011;10400;53.198;6.592;2024-03-07T01:01:42;22.55;;;14.07;;
20482;SDS011;10400;53.198;6.592;2024-03-07T01:04:08;19.63;;;13.43;;
20482;SDS011;10400;53.198;6.592;2024-03-07T01:06:34;22.85;;;14.43;;
20482;SDS011;10400;53.198;6.592;2024-03-07T01:09:01;20.70;;;14.30;;
20482;SDS011;10400;53.198;6.592;2024-03-07T01:11:27;23.00;;;13.93;;
20482;SDS011;10400;53.198;6.592;2024-03-07T01:13:52;22.85;;;13.57;;
20482;SDS011;10400;53.198;6.592;2024-03-07T01:16:18;20.38;;;13.43;;
20482;SDS011;10400;53.198;6.592;2024-03-07T01:18:44;23.10;;;14.00;;
20482;SDS011;10400;53.198;6.592;2024-03-07T01:21:09;20.17;;;13.77;;
20482;SDS011;10400;53.198;6.592;2024-03-07T01:23:35;19.30;;;14.10;;
20482;SDS011;10400;53.198;6.592;2024-03-07T01:26:01;23.77;;;14.80;;
20482;SDS011;10400;53.198;6.592;2024-03-07T01:28:27;29.58;;;14.63;;
20482;SDS011;10400;53.198;6.592;2024-03-07T01:30:57;25.08;;;13.85;;
20482;SDS011;10400;53.198;6.592;2024-03-07T01:33:23;22.92;;;14.65;;
20482;SDS011;10400;53.198;6.592;2024-03-07T01:35:49;20.10;;;13.75;;
20482;SDS011;10400;53.198;6.592;2024-03-07T01:38:15;21.90;;;13.95;;
20482;SDS011;10400;53.198;6.592;2024-03-07T01:40:41;21.35;;;14.20;;
20482;SDS011;10400;53.198;6.592;2024-03-07T01:43:07;22.48;;;14.68;;
20482;SDS011;10400;53.198;6.592;2024-03-07T01:45:34;21.05;;;14.40;;
20482;SDS011;10400;53.198;6.592;2024-03-07T01:48:03;21.15;;;13.55;;
20482;SDS011;10400;53.198;6.592;2024-03-07T01:50:29;18.88;;;13.30;;
20482;SDS011;10400;53.198;6.592;2024-03-07T01:52:55;23.33;;;14.23;;
20482;SDS011;10400;53.198;6.592;2024-03-07T01:55:22;22.67;;;13.93;;
20482;SDS011;10400;53.198;6.592;2024-03-07T01:57:48;24.88;;;14.85;;
20482;SDS011;10400;53.198;6.592;2024-03-07T02:00:14;22.52;;;14.35;;
20482;SDS011;10400;53.198;6.592;2024-03-07T02:02:43;25.15;;;15.02;;
20482;SDS011;10400;53.198;6.592;2024-03-07T02:05:10;22.17;;;14.52;;
20482;SDS011;10400;53.198;6.592;2024-03-07T02:07:35;26.63;;;14.75;;
20482;SDS011;10400;53.198;6.592;2024-03-07T02:10:02;22.30;;;15.02;;
20482;SDS011;10400;53.198;6.592;2024-03-07T02:12:31;20.23;;;13.75;;
20482;SDS011;10400;53.198;6.592;2024-03-07T02:14:58;27.77;;;15.32;;
20482;SDS011;10400;53.198;6.592;2024-03-07T02:17:24;20.65;;;14.85;;
20482;SDS011;10400;53.198;6.592;2024-03-07T02:19:53;19.67;;;13.60;;
20482;SDS011;10400;53.198;6.592;2024-03-07T02:22:19;22.98;;;14.32;;
20482;SDS011;10400;53.198;6.592;2024-03-07T02:24:45;25.85;;;14.05;;
20482;SDS011;10400;53.198;6.592;2024-03-07T02:27:11;22.08;;;13.50;;
20482;SDS011;10400;53.198;6.592;2024-03-07T02:29:39;22.75;;;14.13;;
20482;SDS011;10400;53.198;6.592;2024-03-07T02:32:05;21.27;;;14.93;;
20482;SDS011;10400;53.198;6.592;2024-03-07T02:34:31;21.58;;;13.63;;
20482;SDS011;10400;53.198;6.592;2024-03-07T02:36:57;22.90;;;14.40;;
20482;SDS011;10400;53.198;6.592;2024-03-07T02:39:23;24.20;;;14.10;;
20482;SDS011;10400;53.198;6.592;2024-03-07T02:41:50;21.83;;;14.48;;
20482;SDS011;10400;53.198;6.592;2024-03-07T02:44:16;18.38;;;13.30;;
20482;SDS011;10400;53.198;6.592;2024-03-07T02:46:42;23.50;;;13.75;;
20482;SDS011;10400;53.198;6.592;2024-03-07T02:49:07;19.65;;;13.88;;
20482;SDS011;10400;53.198;6.592;2024-03-07T02:51:34;22.75;;;14.77;;
20482;SDS011;10400;53.198;6.592;2024-03-07T02:54:00;23.33;;;14.77;;
20482;SDS011;10400;53.198;6.592;2024-03-07T02:56:28;22.60;;;14.45;;
20482;SDS011;10400;53.198;6.592;2024-03-07T02:58:53;21.33;;;13.68;;
20482;SDS011;10400;53.198;6.592;2024-03-07T03:01:19;20.95;;;14.00;;
20482;SDS011;10400;53.198;6.592;2024-03-07T03:03:45;22.08;;;14.10;;
20482;SDS011;10400;53.198;6.592;2024-03-07T03:06:11;25.05;;;14.32;;
20482;SDS011;10400;53.198;6.592;2024-03-07T03:08:36;23.05;;;14.98;;
20482;SDS011;10400;53.198;6.592;2024-03-07T03:11:03;22.60;;;14.27;;
20482;SDS011;10400;53.198;6.592;2024-03-07T03:13:28;25.88;;;15.25;;
20482;SDS011;10400;53.198;6.592;2024-03-07T03:15:54;20.00;;;13.88;;
20482;SDS011;10400;53.198;6.592;2024-03-07T03:18:21;21.98;;;14.05;;
20482;SDS011;10400;53.198;6.592;2024-03-07T03:20:48;22.35;;;13.85;;
20482;SDS011;10400;53.198;6.592;2024-03-07T03:23:14;21.60;;;14.20;;
20482;SDS011;10400;53.198;6.592;2024-03-07T03:25:40;21.08;;;13.77;;
20482;SDS011;10400;53.198;6.592;2024-03-07T03:28:07;24.92;;;15.13;;
20482;SDS011;10400;53.198;6.592;2024-03-07T03:30:39;23.42;;;15.07;;
20482;SDS011;10400;53.198;6.592;2024-03-07T03:33:08;21.15;;;14.05;;
20482;SDS011;10400;53.198;6.592;2024-03-07T03:35:34;20.90;;;14.10;;
20482;SDS011;10400;53.198;6.592;2024-03-07T03:38:00;21.20;;;14.32;;
20482;SDS011;10400;53.198;6.592;2024-03-07T03:40:26;21.95;;;14.07;;
20482;SDS011;10400;53.198;6.592;2024-03-07T03:42:52;22.27;;;14.27;;
20482;SDS011;10400;53.198;6.592;2024-03-07T03:45:18;21.73;;;14.68;;
20482;SDS011;10400;53.198;6.592;2024-03-07T03:47:44;25.10;;;14.65;;
20482;SDS011;10400;53.198;6.592;2024-03-07T03:50:10;22.70;;;15.13;;
20482;SDS011;10400;53.198;6.592;2024-03-07T03:52:37;24.85;;;14.55;;
20482;SDS011;10400;53.198;6.592;2024-03-07T03:55:04;22.65;;;13.52;;
20482;SDS011;10400;53.198;6.592;2024-03-07T03:57:40;23.50;;;15.32;;
20482;SDS011;10400;53.198;6.592;2024-03-07T04:00:07;22.35;;;14.65;;
20482;SDS011;10400;53.198;6.592;2024-03-07T04:02:43;22.80;;;14.10;;
20482;SDS011;10400;53.198;6.592;2024-03-07T04:05:13;21.85;;;14.93;;
20482;SDS011;10400;53.198;6.592;2024-03-07T04:07:40;21.70;;;14.20;;
20482;SDS011;10400;53.198;6.592;2024-03-07T04:10:09;21.73;;;14.10;;
20482;SDS011;10400;53.198;6.592;2024-03-07T04:12:36;21.73;;;13.43;;
20482;SDS011;10400;53.198;6.592;2024-03-07T04:15:03;22.48;;;14.65;;
20482;SDS011;10400;53.198;6.592;2024-03-07T04:17:32;23.33;;;15.30;;
20482;SDS011;10400;53.198;6.592;2024-03-07T04:19:59;21.85;;;15.23;;
20482;SDS011;10400;53.198;6.592;2024-03-07T04:22:25;19.85;;;14.07;;
20482;SDS011;10400;53.198;6.592;2024-03-07T04:24:51;24.17;;;15.30;;
20482;SDS011;10400;53.198;6.592;2024-03-07T04:27:20;23.30;;;14.85;;
20482;SDS011;10400;53.198;6.592;2024-03-07T04:29:47;23.30;;;14.65;;
20482;SDS011;10400;53.198;6.592;2024-03-07T04:32:14;24.67;;;15.10;;
20482;SDS011;10400;53.198;6.592;2024-03-07T04:34:40;22.25;;;15.73;;
20482;SDS011;10400;53.198;6.592;2024-03-07T04:37:05;24.58;;;15.18;;
20482;SDS011;10400;53.198;6.592;2024-03-07T04:39:31;26.27;;;15.50;;
20482;SDS011;10400;53.198;6.592;2024-03-07T04:42:03;23.45;;;15.57;;
20482;SDS011;10400;53.198;6.592;2024-03-07T04:44:31;24.75;;;15.27;;
20482;SDS011;10400;53.198;6.592;2024-03-07T04:46:58;23.52;;;14.55;;
20482;SDS011;10400;53.198;6.592;2024-03-07T04:49:25;25.85;;;16.42;;
20482;SDS011;10400;53.198;6.592;2024-03-07T04:51:59;22.13;;;14.93;;
20482;SDS011;10400;53.198;6.592;2024-03-07T04:54:27;21.98;;;15.55;;
20482;SDS011;10400;53.198;6.592;2024-03-07T04:56:53;25.13;;;15.68;;
20482;SDS011;10400;53.198;6.592;2024-03-07T04:59:20;23.50;;;15.00;;
20482;SDS011;10400;53.198;6.592;2024-03-07T05:01:46;22.85;;;15.52;;
20482;SDS011;10400;53.198;6.592;2024-03-07T05:04:14;22.05;;;15.13;;
20482;SDS011;10400;53.198;6.592;2024-03-07T05:06:41;26.90;;;16.33;;
20482;SDS011;10400;53.198;6.592;2024-03-07T05:09:08;27.13;;;15.82;;
20482;SDS011;10400;53.198;6.592;2024-03-07T05:11:35;21.63;;;15.07;;
20482;SDS011;10400;53.198;6.592;2024-03-07T05:14:02;28.77;;;16.40;;
20482;SDS011;10400;53.198;6.592;2024-03-07T05:16:30;23.67;;;15.27;;
20482;SDS011;10400;53.198;6.592;2024-03-07T05:18:56;22.45;;;15.55;;
20482;SDS011;10400;53.198;6.592;2024-03-07T05:21:26;24.13;;;15.10;;
20482;SDS011;10400;53.198;6.592;2024-03-07T05:24:00;25.58;;;15.93;;
20482;SDS011;10400;53.198;6.592;2024-03-07T05:26:27;24.30;;;16.00;;
20482;SDS011;10400;53.198;6.592;2024-03-07T05:28:53;25.38;;;16.77;;
20482;SDS011;10400;53.198;6.592;2024-03-07T05:31:19;25.05;;;16.05;;
20482;SDS011;10400;53.198;6.592;2024-03-07T05:33:46;25.95;;;17.63;;
20482;SDS011;10400;53.198;6.592;2024-03-07T05:36:12;30.75;;;18.05;;
20482;SDS011;10400;53.198;6.592;2024-03-07T05:38:43;29.05;;;17.20;;
20482;SDS011;10400;53.198;6.592;2024-03-07T05:41:13;29.55;;;18.40;;
20482;SDS011;10400;53.198;6.592;2024-03-07T05:43:39;29.58;;;19.50;;
20482;SDS011;10400;53.198;6.592;2024-03-07T05:46:05;29.88;;;19.92;;
20482;SDS011;10400;53.198;6.592;2024-03-07T05:48:36;29.20;;;19.05;;
20482;SDS011;10400;53.198;6.592;2024-03-07T05:51:02;33.35;;;20.05;;
20482;SDS011;10400;53.198;6.592;2024-03-07T05:53:28;30.42;;;19.88;;
20482;SDS011;10400;53.198;6.592;2024-03-07T05:55:54;32.95;;;20.73;;
20482;SDS011;10400;53.198;6.592;2024-03-07T05:58:19;33.30;;;20.38;;
20482;SDS011;10400;53.198;6.592;2024-03-07T06:00:46;29.77;;;20.55;;
20482;SDS011;10400;53.198;6.592;2024-03-07T06:03:17;30.55;;;19.67;;
20482;SDS011;10400;53.198;6.592;2024-03-07T06:05:49;32.85;;;19.58;;
20482;SDS011;10400;53.198;6.592;2024-03-07T06:08:15;32.55;;;20.88;;
20482;SDS011;10400;53.198;6.592;2024-03-07T06:10:45;30.38;;;20.08;;
20482;SDS011;10400;53.198;6.592;2024-03-07T06:13:11;30.88;;;19.50;;
20482;SDS011;10400;53.198;6.592;2024-03-07T06:15:39;33.25;;;19.83;;
20482;SDS011;10400;53.198;6.592;2024-03-07T06:18:05;34.25;;;21.33;;
20482;SDS011;10400;53.198;6.592;2024-03-07T06:20:33;36.58;;;22.02;;
20482;SDS011;10400;53.198;6.592;2024-03-07T06:23:00;35.65;;;21.52;;
20482;SDS011;10400;53.198;6.592;2024-03-07T06:25:33;37.20;;;21.98;;
20482;SDS011;10400;53.198;6.592;2024-03-07T06:28:11;35.35;;;22.08;;
20482;SDS011;10400;53.198;6.592;2024-03-07T06:33:04;39.43;;;23.63;;
20482;SDS011;10400;53.198;6.592;2024-03-07T06:35:30;43.40;;;24.73;;
20482;SDS011;10400;53.198;6.592;2024-03-07T06:37:56;53.35;;;27.27;;
20482;SDS011;10400;53.198;6.592;2024-03-07T06:40:22;51.63;;;28.73;;
20482;SDS011;10400;53.198;6.592;2024-03-07T06:42:48;74.80;;;30.08;;
20482;SDS011;10400;53.198;6.592;2024-03-07T06:45:14;85.33;;;31.63;;
20482;SDS011;10400;53.198;6.592;2024-03-07T06:47:40;75.50;;;31.80;;
20482;SDS011;10400;53.198;6.592;2024-03-07T06:50:06;114.23;;;32.53;;
20482;SDS011;10400;53.198;6.592;2024-03-07T06:52:34;96.60;;;31.77;;
20482;SDS011;10400;53.198;6.592;2024-03-07T06:55:03;118.67;;;33.87;;
20482;SDS011;10400;53.198;6.592;2024-03-07T06:57:29;65.97;;;34.33;;
20482;SDS011;10400;53.198;6.592;2024-03-07T06:59:55;88.37;;;33.33;;
20482;SDS011;10400;53.198;6.592;2024-03-07T07:02:20;99.93;;;34.40;;
20482;SDS011;10400;53.198;6.592;2024-03-07T07:04:46;104.40;;;34.80;;
20482;SDS011;10400;53.198;6.592;2024-03-07T07:07:12;125.63;;;36.27;;
20482;SDS011;10400;53.198;6.592;2024-03-07T07:09:39;94.47;;;35.30;;
20482;SDS011;10400;53.198;6.592;2024-03-07T07:12:05;97.30;;;34.58;;
20482;SDS011;10400;53.198;6.592;2024-03-07T07:14:31;79.63;;;34.30;;
20482;SDS011;10400;53.198;6.592;2024-03-07T07:16:57;85.13;;;37.63;;
20482;SDS011;10400;53.198;6.592;2024-03-07T07:19:24;80.73;;;35.53;;
20482;SDS011;10400;53.198;6.592;2024-03-07T07:21:50;107.07;;;37.93;;
20482;SDS011;10400;53.198;6.592;2024-03-07T07:24:18;85.60;;;37.37;;
20482;SDS011;10400;53.198;6.592;2024-03-07T07:26:46;77.77;;;34.83;;
20482;SDS011;10400;53.198;6.592;2024-03-07T07:29:12;70.70;;;35.03;;
20482;SDS011;10400;53.198;6.592;2024-03-07T07:31:38;66.55;;;32.92;;
20482;SDS011;10400;53.198;6.592;2024-03-07T07:34:04;81.20;;;34.00;;
20482;SDS011;10400;53.198;6.592;2024-03-07T07:36:31;76.82;;;35.63;;
20482;SDS011;10400;53.198;6.592;2024-03-07T07:38:57;75.60;;;36.50;;
20482;SDS011;10400;53.198;6.592;2024-03-07T07:41:23;77.47;;;36.17;;
20482;SDS011;10400;53.198;6.592;2024-03-07T07:43:48;78.83;;;34.63;;
20482;SDS011;10400;53.198;6.592;2024-03-07T07:46:16;74.07;;;35.42;;
20482;SDS011;10400;53.198;6.592;2024-03-07T07:48:42;69.57;;;33.10;;
20482;SDS011;10400;53.198;6.592;2024-03-07T07:51:07;88.10;;;33.80;;
20482;SDS011;10400;53.198;6.592;2024-03-07T07:53:34;85.53;;;31.70;;
20482;SDS011;10400;53.198;6.592;2024-03-07T07:55:59;71.53;;;32.40;;
20482;SDS011;10400;53.198;6.592;2024-03-07T07:58:25;67.85;;;31.33;;
20482;SDS011;10400;53.198;6.592;2024-03-07T08:00:51;70.70;;;32.30;;
20482;SDS011;10400;53.198;6.592;2024-03-07T08:03:17;70.88;;;30.50;;
20482;SDS011;10400;53.198;6.592;2024-03-07T08:05:43;65.53;;;31.57;;
20482;SDS011;10400;53.198;6.592;2024-03-07T08:08:12;68.13;;;31.27;;
20482;SDS011;10400;53.198;6.592;2024-03-07T08:10:41;66.32;;;31.05;;
20482;SDS011;10400;53.198;6.592;2024-03-07T08:13:07;78.77;;;31.40;;
20482;SDS011;10400;53.198;6.592;2024-03-07T08:15:35;65.50;;;29.35;;
20482;SDS011;10400;53.198;6.592;2024-03-07T08:18:01;60.28;;;29.23;;
20482;SDS011;10400;53.198;6.592;2024-03-07T08:20:27;66.37;;;29.63;;
20482;SDS011;10400;53.198;6.592;2024-03-07T08:22:53;67.00;;;31.23;;
20482;SDS011;10400;53.198;6.592;2024-03-07T08:25:21;60.28;;;28.15;;
20482;SDS011;10400;53.198;6.592;2024-03-07T08:27:51;62.97;;;29.30;;
20482;SDS011;10400;53.198;6.592;2024-03-07T08:30:19;59.93;;;28.60;;
20482;SDS011;10400;53.198;6.592;2024-03-07T08:32:45;57.40;;;27.63;;
20482;SDS011;10400;53.198;6.592;2024-03-07T08:35:18;55.00;;;25.38;;
20482;SDS011;10400;53.198;6.592;2024-03-07T08:37:45;59.40;;;26.25;;
20482;SDS011;10400;53.198;6.592;2024-03-07T08:40:14;60.43;;;26.83;;
20482;SDS011;10400;53.198;6.592;2024-03-07T08:42:47;56.97;;;27.20;;
20482;SDS011;10400;53.198;6.592;2024-03-07T08:45:16;56.23;;;26.77;;
20482;SDS011;10400;53.198;6.592;2024-03-07T08:47:44;52.70;;;27.00;;
20482;SDS011;10400;53.198;6.592;2024-03-07T08:50:14;54.97;;;25.67;;
20482;SDS011;10400;53.198;6.592;2024-03-07T08:52:43;60.67;;;27.80;;
20482;SDS011;10400;53.198;6.592;2024-03-07T08:55:09;56.87;;;26.00;;
20482;SDS011;10400;53.198;6.592;2024-03-07T08:57:38;54.07;;;25.50;;
20482;SDS011;10400;53.198;6.592;2024-03-07T09:00:07;55.77;;;26.30;;
20482;SDS011;10400;53.198;6.592;2024-03-07T09:02:37;50.65;;;25.48;;
20482;SDS011;10400;53.198;6.592;2024-03-07T09:05:04;51.42;;;24.80;;
20482;SDS011;10400;53.198;6.592;2024-03-07T09:07:31;47.45;;;23.70;;
20482;SDS011;10400;53.198;6.592;2024-03-07T09:09:57;46.03;;;23.23;;
20482;SDS011;10400;53.198;6.592;2024-03-07T09:12:23;46.60;;;21.80;;
20482;SDS011;10400;53.198;6.592;2024-03-07T09:14:52;47.85;;;23.25;;
20482;SDS011;10400;53.198;6.592;2024-03-07T09:17:19;42.40;;;20.98;;
20482;SDS011;10400;53.198;6.592;2024-03-07T09:19:45;45.80;;;22.87;;
20482;SDS011;10400;53.198;6.592;2024-03-07T09:22:11;47.20;;;23.37;;
20482;SDS011;10400;53.198;6.592;2024-03-07T09:24:37;44.73;;;22.37;;
20482;SDS011;10400;53.198;6.592;2024-03-07T09:27:03;47.73;;;23.63;;
20482;SDS011;10400;53.198;6.592;2024-03-07T09:29:29;47.83;;;23.43;;
20482;SDS011;10400;53.198;6.592;2024-03-07T09:31:55;45.27;;;21.50;;
20482;SDS011;10400;53.198;6.592;2024-03-07T09:34:22;44.25;;;22.58;;
20482;SDS011;10400;53.198;6.592;2024-03-07T09:36:49;38.03;;;20.73;;
20482;SDS011;10400;53.198;6.592;2024-03-07T09:39:16;40.58;;;20.27;;
20482;SDS011;10400;53.198;6.592;2024-03-07T09:41:42;40.45;;;20.20;;
20482;SDS011;10400;53.198;6.592;2024-03-07T09:44:17;40.05;;;19.70;;
20482;SDS011;10400;53.198;6.592;2024-03-07T09:46:50;41.45;;;20.77;;
20482;SDS011;10400;53.198;6.592;2024-03-07T09:49:19;42.10;;;20.83;;
20482;SDS011;10400;53.198;6.592;2024-03-07T09:51:46;40.55;;;20.33;;
20482;SDS011;10400;53.198;6.592;2024-03-07T09:54:19;41.42;;;21.23;;
20482;SDS011;10400;53.198;6.592;2024-03-07T09:56:50;41.07;;;21.53;;
20482;SDS011;10400;53.198;6.592;2024-03-07T09:59:18;43.95;;;20.80;;
20482;SDS011;10400;53.198;6.592;2024-03-07T10:01:47;42.03;;;21.63;;
20482;SDS011;10400;53.198;6.592;2024-03-07T10:04:16;38.78;;;20.40;;
20482;SDS011;10400;53.198;6.592;2024-03-07T10:06:50;39.25;;;22.00;;
20482;SDS011;10400;53.198;6.592;2024-03-07T10:09:18;47.33;;;22.23;;
20482;SDS011;10400;53.198;6.592;2024-03-07T10:11:54;43.65;;;22.35;;
20482;SDS011;10400;53.198;6.592;2024-03-07T10:14:21;43.30;;;20.63;;
20482;SDS011;10400;53.198;6.592;2024-03-07T10:16:47;37.00;;;20.13;;
20482;SDS011;10400;53.198;6.592;2024-03-07T10:19:12;40.50;;;21.20;;
20482;SDS011;10400;53.198;6.592;2024-03-07T10:21:40;35.45;;;19.77;;
20482;SDS011;10400;53.198;6.592;2024-03-07T10:24:06;41.53;;;20.88;;
20482;SDS011;10400;53.198;6.592;2024-03-07T10:26:36;41.50;;;20.05;;
20482;SDS011;10400;53.198;6.592;2024-03-07T10:29:03;38.95;;;20.23;;
20482;SDS011;10400;53.198;6.592;2024-03-07T10:31:33;40.60;;;21.27;;
20482;SDS011;10400;53.198;6.592;2024-03-07T10:34:02;36.92;;;20.17;;
20482;SDS011;10400;53.198;6.592;2024-03-07T10:36:32;39.60;;;20.23;;
20482;SDS011;10400;53.198;6.592;2024-03-07T10:39:01;37.50;;;19.25;;
20482;SDS011;10400;53.198;6.592;2024-03-07T10:41:48;40.87;;;21.57;;
20482;SDS011;10400;53.198;6.592;2024-03-07T10:44:24;41.78;;;21.58;;
20482;SDS011;10400;53.198;6.592;2024-03-07T10:46:54;46.28;;;22.30;;
20482;SDS011;10400;53.198;6.592;2024-03-07T10:49:22;38.88;;;20.00;;
20482;SDS011;10400;53.198;6.592;2024-03-07T10:57:20;41.60;;;21.42;;
20482;SDS011;10400;53.198;6.592;2024-03-07T10:59:57;39.08;;;20.58;;
20482;SDS011;10400;53.198;6.592;2024-03-07T11:02:57;42.25;;;20.88;;
20482;SDS011;10400;53.198;6.592;2024-03-07T11:05:25;37.03;;;19.60;;
20482;SDS011;10400;53.198;6.592;2024-03-07T11:07:55;37.15;;;19.83;;
20482;SDS011;10400;53.198;6.592;2024-03-07T11:10:24;37.25;;;19.10;;
20482;SDS011;10400;53.198;6.592;2024-03-07T11:12:51;38.50;;;19.52;;
20482;SDS011;10400;53.198;6.592;2024-03-07T11:15:18;36.90;;;19.70;;
20482;SDS011;10400;53.198;6.592;2024-03-07T11:17:47;36.88;;;19.63;;
20482;SDS011;10400;53.198;6.592;2024-03-07T11:22:46;38.15;;;19.27;;
20482;SDS011;10400;53.198;6.592;2024-03-07T11:25:12;42.85;;;20.42;;
20482;SDS011;10400;53.198;6.592;2024-03-07T11:27:38;41.70;;;18.65;;
20482;SDS011;10400;53.198;6.592;2024-03-07T11:30:05;38.42;;;19.08;;
20482;SDS011;10400;53.198;6.592;2024-03-07T11:32:35;39.08;;;19.65;;
20482;SDS011;10400;53.198;6.592;2024-03-07T11:35:04;38.25;;;19.55;;
20482;SDS011;10400;53.198;6.592;2024-03-07T11:37:39;36.10;;;18.83;;
20482;SDS011;10400;53.198;6.592;2024-03-07T11:40:09;38.78;;;19.15;;
20482;SDS011;10400;53.198;6.592;2024-03-07T11:42:43;36.38;;;18.42;;
20482;SDS011;10400;53.198;6.592;2024-03-07T11:45:12;37.00;;;19.02;;
20482;SDS011;10400;53.198;6.592;2024-03-07T11:47:50;36.25;;;18.80;;
20482;SDS011;10400;53.198;6.592;2024-03-07T11:50:28;34.65;;;19.35;;
20482;SDS011;10400;53.198;6.592;2024-03-07T11:52:59;38.67;;;19.10;;
20482;SDS011;10400;53.198;6.592;2024-03-07T11:55:26;37.00;;;19.08;;
20482;SDS011;10400;53.198;6.592;2024-03-07T11:57:55;38.72;;;18.98;;
20482;SDS011;10400;53.198;6.592;2024-03-07T12:00:21;34.38;;;19.15;;
20482;SDS011;10400;53.198;6.592;2024-03-07T12:02:49;31.85;;;17.80;;
20482;SDS011;10400;53.198;6.592;2024-03-07T12:05:15;35.15;;;19.27;;
20482;SDS011;10400;53.198;6.592;2024-03-07T12:07:42;34.30;;;18.40;;
20482;SDS011;10400;53.198;6.592;2024-03-07T12:10:09;35.83;;;18.17;;
20482;SDS011;10400;53.198;6.592;2024-03-07T12:12:35;30.35;;;17.17;;
20482;SDS011;10400;53.198;6.592;2024-03-07T12:15:04;31.60;;;17.33;;
20482;SDS011;10400;53.198;6.592;2024-03-07T12:17:37;28.00;;;17.08;;
20482;SDS011;10400;53.198;6.592;2024-03-07T12:20:05;37.20;;;18.25;;
20482;SDS011;10400;53.198;6.592;2024-03-07T12:22:49;30.40;;;16.25;;
20482;SDS011;10400;53.198;6.592;2024-03-07T12:25:31;27.10;;;16.05;;
20482;SDS011;10400;53.198;6.592;2024-03-07T12:28:08;31.80;;;16.45;;
20482;SDS011;10400;53.198;6.592;2024-03-07T12:33:11;27.77;;;16.33;;
20482;SDS011;10400;53.198;6.592;2024-03-07T12:35:41;29.27;;;16.50;;
20482;SDS011;10400;53.198;6.592;2024-03-07T12:38:11;29.58;;;16.75;;
20482;SDS011;10400;53.198;6.592;2024-03-07T12:40:39;29.20;;;16.05;;
20482;SDS011;10400;53.198;6.592;2024-03-07T12:43:18;26.92;;;15.15;;
20482;SDS011;10400;53.198;6.592;2024-03-07T12:45:48;26.80;;;15.77;;
20482;SDS011;10400;53.198;6.592;2024-03-07T12:48:17;27.33;;;15.55;;
20482;SDS011;10400;53.198;6.592;2024-03-07T12:50:48;31.73;;;16.50;;
20482;SDS011;10400;53.198;6.592;2024-03-07T12:53:22;29.45;;;16.50;;
20482;SDS011;10400;53.198;6.592;2024-03-07T12:55:50;26.30;;;15.23;;
20482;SDS011;10400;53.198;6.592;2024-03-07T12:58:17;26.75;;;15.70;;
20482;SDS011;10400;53.198;6.592;2024-03-07T13:00:45;27.02;;;15.90;;
20482;SDS011;10400;53.198;6.592;2024-03-07T13:03:10;27.20;;;15.65;;
20482;SDS011;10400;53.198;6.592;2024-03-07T13:05:39;28.75;;;14.90;;
20482;SDS011;10400;53.198;6.592;2024-03-07T13:08:09;40.55;;;17.27;;
20482;SDS011;10400;53.198;6.592;2024-03-07T13:10:38;30.70;;;16.02;;
20482;SDS011;10400;53.198;6.592;2024-03-07T13:13:04;28.20;;;15.07;;
20482;SDS011;10400;53.198;6.592;2024-03-07T13:15:30;28.75;;;15.20;;
20482;SDS011;10400;53.198;6.592;2024-03-07T13:17:56;25.38;;;15.63;;
20482;SDS011;10400;53.198;6.592;2024-03-07T13:20:21;27.67;;;14.82;;
20482;SDS011;10400;53.198;6.592;2024-03-07T13:22:51;27.70;;;14.93;;
20482;SDS011;10400;53.198;6.592;2024-03-07T13:25:22;28.73;;;16.52;;
20482;SDS011;10400;53.198;6.592;2024-03-07T13:27:56;28.52;;;15.73;;
20482;SDS011;10400;53.198;6.592;2024-03-07T13:30:24;28.50;;;15.40;;
20482;SDS011;10400;53.198;6.592;2024-03-07T13:32:54;27.35;;;14.98;;
20482;SDS011;10400;53.198;6.592;2024-03-07T13:35:24;27.60;;;15.00;;
20482;SDS011;10400;53.198;6.592;2024-03-07T13:37:51;26.38;;;15.43;;
20482;SDS011;10400;53.198;6.592;2024-03-07T13:40:20;28.45;;;15.57;;
20482;SDS011;10400;53.198;6.592;2024-03-07T13:42:53;26.25;;;13.93;;
20482;SDS011;10400;53.198;6.592;2024-03-07T13:45:26;29.48;;;15.55;;
20482;SDS011;10400;53.198;6.592;2024-03-07T13:47:53;26.40;;;15.13;;
20482;SDS011;10400;53.198;6.592;2024-03-07T13:50:20;28.23;;;15.63;;
20482;SDS011;10400;53.198;6.592;2024-03-07T13:52:54;26.38;;;14.88;;
20482;SDS011;10400;53.198;6.592;2024-03-07T14:01:34;26.30;;;14.07;;
20482;SDS011;10400;53.198;6.592;2024-03-07T14:10:00;29.02;;;15.15;;
20482;SDS011;10400;53.198;6.592;2024-03-07T14:15:46;26.67;;;14.43;;
20482;SDS011;10400;53.198;6.592;2024-03-07T14:30:59;26.30;;;15.30;;
20482;SDS011;10400;53.198;6.592;2024-03-07T14:33:48;27.10;;;14.95;;
20482;SDS011;10400;53.198;6.592;2024-03-07T14:36:44;27.33;;;14.48;;
20482;SDS011;10400;53.198;6.592;2024-03-07T14:39:15;25.95;;;14.18;;
20482;SDS011;10400;53.198;6.592;2024-03-07T14:41:52;23.55;;;14.02;;
20482;SDS011;10400;53.198;6.592;2024-03-07T14:44:23;21.90;;;13.13;;
20482;SDS011;10400;53.198;6.592;2024-03-07T14:46:52;24.63;;;13.90;;
20482;SDS011;10400;53.198;6.592;2024-03-07T14:49:23;26.75;;;13.88;;
20482;SDS011;10400;53.198;6.592;2024-03-07T14:51:50;22.58;;;14.00;;
20482;SDS011;10400;53.198;6.592;2024-03-07T14:54:18;23.02;;;13.43;;
20482;SDS011;10400;53.198;6.592;2024-03-07T14:56:47;24.05;;;14.07;;
20482;SDS011;10400;53.198;6.592;2024-03-07T14:59:13;24.60;;;13.45;;
20482;SDS011;10400;53.198;6.592;2024-03-07T15:01:38;22.48;;;13.65;;
20482;SDS011;10400;53.198;6.592;2024-03-07T15:04:04;24.70;;;13.88;;
20482;SDS011;10400;53.198;6.592;2024-03-07T15:06:35;26.80;;;14.85;;